createdAt,value
2019-05-25T00:01:34.589Z,6.10
2019-05-25T00:04:02.994Z,10.13
2019-05-25T00:06:31.373Z,9.27
2019-05-25T00:08:59.762Z,6.00
2019-05-25T00:11:28.222Z,6.60
2019-05-25T00:13:56.613Z,7.40
2019-05-25T00:16:24.997Z,6.73
2019-05-25T00:18:53.473Z,8.80
2019-05-25T00:21:21.862Z,7.80
2019-05-25T00:23:50.244Z,6.80
2019-05-25T00:26:18.638Z,6.23
2019-05-25T00:28:47.012Z,7.13
2019-05-25T00:31:15.485Z,6.73
2019-05-25T00:33:43.937Z,8.03
2019-05-25T00:36:12.326Z,8.17
2019-05-25T00:38:40.713Z,7.13
2019-05-25T00:41:09.134Z,7.60
2019-05-25T00:43:37.513Z,6.97
2019-05-25T00:46:05.969Z,7.77
2019-05-25T00:48:34.360Z,8.10
2019-05-25T00:51:02.737Z,7.80
2019-05-25T00:53:31.205Z,8.80
2019-05-25T00:55:59.582Z,8.23
2019-05-25T00:58:27.963Z,8.23
2019-05-25T01:00:56.388Z,6.20
2019-05-25T01:03:24.821Z,7.53
2019-05-25T01:05:53.207Z,9.33
2019-05-25T01:08:21.596Z,7.73
2019-05-25T01:10:49.972Z,8.93
2019-05-25T01:13:18.439Z,8.63
2019-05-25T01:15:46.840Z,9.80
2019-05-25T01:18:15.225Z,10.97
2019-05-25T01:20:44.553Z,9.07
2019-05-25T01:23:12.949Z,11.33
2019-05-25T01:25:42.392Z,10.77
2019-05-25T01:28:10.826Z,9.47
2019-05-25T01:30:39.285Z,11.53
2019-05-25T01:33:07.733Z,10.87
2019-05-25T01:35:36.365Z,13.17
2019-05-25T01:38:04.998Z,11.23
2019-05-25T01:40:33.392Z,12.30
2019-05-25T01:43:01.772Z,13.03
2019-05-25T01:45:30.170Z,13.87
2019-05-25T01:47:58.552Z,12.87
2019-05-25T01:50:26.940Z,10.73
2019-05-25T01:52:55.334Z,13.57
2019-05-25T01:55:23.729Z,10.47
2019-05-25T01:57:52.121Z,9.93
2019-05-25T02:00:20.576Z,12.93
2019-05-25T02:02:48.986Z,14.00
2019-05-25T02:05:17.413Z,14.10
2019-05-25T02:07:45.878Z,16.20
2019-05-25T02:10:16.090Z,13.00
2019-05-25T02:12:44.490Z,12.30
2019-05-25T02:15:15.409Z,13.47
2019-05-25T02:17:43.867Z,12.67
2019-05-25T02:20:14.198Z,16.37
2019-05-25T02:22:42.591Z,12.67
2019-05-25T02:25:17.995Z,16.07
2019-05-25T02:27:42.281Z,14.27
2019-05-25T02:30:13.672Z,13.17
2019-05-25T02:32:42.082Z,14.93
2019-05-25T02:35:13.573Z,14.00
2019-05-25T02:37:41.963Z,15.73
2019-05-25T02:40:12.082Z,14.33
2019-05-25T02:42:40.481Z,19.77
2019-05-25T02:45:09.753Z,17.83
2019-05-25T02:47:38.141Z,16.40
2019-05-25T02:50:08.390Z,15.90
2019-05-25T02:52:36.785Z,16.90
2019-05-25T02:55:07.872Z,18.40
2019-05-25T02:57:36.269Z,17.40
2019-05-25T03:00:07.189Z,16.53
2019-05-25T03:02:35.588Z,16.73
2019-05-25T03:05:07.391Z,18.27
2019-05-25T03:07:36.656Z,19.37
2019-05-25T03:10:06.685Z,20.67
2019-05-25T03:12:35.840Z,25.33
2019-05-25T03:15:07.237Z,23.50
2019-05-25T03:17:35.907Z,26.60
2019-05-25T03:20:08.919Z,20.03
2019-05-25T03:22:37.321Z,25.80
2019-05-25T03:25:07.495Z,22.53
2019-05-25T03:27:35.889Z,28.33
2019-05-25T03:30:07.686Z,23.87
2019-05-25T03:32:36.094Z,27.77
2019-05-25T03:35:07.198Z,27.13
2019-05-25T03:37:35.575Z,26.20
2019-05-25T03:40:07.055Z,28.23
2019-05-25T03:42:35.517Z,26.60
2019-05-25T03:45:07.116Z,30.83
2019-05-25T03:47:35.516Z,28.00
2019-05-25T03:50:05.548Z,28.80
2019-05-25T03:52:33.934Z,31.13
2019-05-25T03:55:02.355Z,30.67
2019-05-25T03:57:30.740Z,30.70
2019-05-25T03:59:59.159Z,30.47
2019-05-25T04:02:27.581Z,38.00
2019-05-25T04:04:55.968Z,33.70
2019-05-25T04:07:24.355Z,36.00
2019-05-25T04:09:52.750Z,32.43
2019-05-25T04:12:21.138Z,38.93
2019-05-25T04:14:49.613Z,35.33
2019-05-25T04:17:18.038Z,37.10
2019-05-25T04:19:46.437Z,30.80
2019-05-25T04:22:14.819Z,25.83
2019-05-25T04:24:43.218Z,19.83
2019-05-25T04:27:11.701Z,16.97
2019-05-25T04:29:40.072Z,21.03
2019-05-25T04:32:08.471Z,18.23
2019-05-25T04:34:36.933Z,16.50
2019-05-25T04:37:05.337Z,15.73
2019-05-25T04:39:33.728Z,12.40
2019-05-25T04:42:02.128Z,12.83
2019-05-25T04:44:30.527Z,13.40
2019-05-25T04:46:58.922Z,10.80
2019-05-25T04:49:27.352Z,11.87
2019-05-25T04:51:55.785Z,11.53
2019-05-25T04:54:24.176Z,12.37
2019-05-25T04:56:52.574Z,11.17
2019-05-25T04:59:20.977Z,12.87
2019-05-25T05:01:49.373Z,14.07
2019-05-25T05:04:17.782Z,12.17
2019-05-25T05:06:46.196Z,11.97
2019-05-25T05:09:14.596Z,11.80
2019-05-25T05:11:42.991Z,10.70
2019-05-25T05:14:11.385Z,12.30
2019-05-25T05:16:39.789Z,12.57
2019-05-25T05:19:08.184Z,11.43
2019-05-25T05:21:36.680Z,12.10
2019-05-25T05:24:05.078Z,14.17
2019-05-25T05:26:33.473Z,11.37
2019-05-25T05:29:01.877Z,13.47
2019-05-25T05:31:30.284Z,13.10
2019-05-25T05:33:58.918Z,13.25
2019-05-25T05:36:30.159Z,14.60
2019-05-25T05:39:00.984Z,11.22
2019-05-25T05:41:31.429Z,16.17
2019-05-25T05:44:02.173Z,11.60
2019-05-25T05:46:33.199Z,12.03
2019-05-25T05:49:03.661Z,13.20
2019-05-25T05:51:36.933Z,10.87
2019-05-25T05:54:07.150Z,14.23
2019-05-25T05:56:35.549Z,11.50
2019-05-25T05:59:04.081Z,13.03
2019-05-25T06:01:32.485Z,10.87
2019-05-25T06:04:00.877Z,12.07
2019-05-25T06:06:29.286Z,16.93
2019-05-25T06:08:57.677Z,14.23
2019-05-25T06:11:26.072Z,15.63
2019-05-25T06:13:54.474Z,12.23
2019-05-25T06:16:22.868Z,14.60
2019-05-25T06:18:51.283Z,14.23
2019-05-25T06:21:19.674Z,15.07
2019-05-25T06:23:48.067Z,14.73
2019-05-25T06:26:16.558Z,16.27
2019-05-25T06:28:44.966Z,14.80
2019-05-25T06:31:13.385Z,16.03
2019-05-25T06:33:41.757Z,17.03
2019-05-25T06:36:10.170Z,12.90
2019-05-25T06:38:38.571Z,16.63
2019-05-25T06:41:08.843Z,13.10
2019-05-25T06:43:37.089Z,16.53
2019-05-25T06:46:05.474Z,13.93
2019-05-25T06:48:33.858Z,15.03
2019-05-25T06:51:02.265Z,11.77
2019-05-25T06:53:30.657Z,12.30
2019-05-25T06:55:59.057Z,14.00
2019-05-25T06:58:27.469Z,11.45
2019-05-25T07:00:55.846Z,10.68
2019-05-25T07:03:24.233Z,14.05
2019-05-25T07:05:52.626Z,9.90
2019-05-25T07:08:21.019Z,11.48
2019-05-25T07:10:50.184Z,11.40
2019-05-25T07:13:18.584Z,12.23
2019-05-25T07:15:47.033Z,13.38
2019-05-25T07:18:15.435Z,10.50
2019-05-25T07:20:43.839Z,8.68
2019-05-25T07:23:12.237Z,11.73
2019-05-25T07:25:40.631Z,8.45
2019-05-25T07:28:09.008Z,9.05
2019-05-25T07:30:39.085Z,9.85
2019-05-25T07:33:07.482Z,9.55
2019-05-25T07:35:36.077Z,9.48
2019-05-25T07:38:04.513Z,7.97
2019-05-25T07:40:32.942Z,9.18
2019-05-25T07:43:01.379Z,11.30
2019-05-25T07:45:29.966Z,11.35
2019-05-25T07:47:58.435Z,11.20
2019-05-25T07:50:27.053Z,9.58
2019-05-25T07:52:55.494Z,9.30
2019-05-25T07:55:23.881Z,10.35
2019-05-25T07:57:52.280Z,7.83
2019-05-25T08:00:20.734Z,10.45
2019-05-25T08:02:49.210Z,8.68
2019-05-25T08:05:18.447Z,10.72
2019-05-25T08:07:46.877Z,13.53
2019-05-25T08:10:16.904Z,9.18
2019-05-25T08:12:45.295Z,9.18
2019-05-25T08:15:15.343Z,10.00
2019-05-25T08:17:43.720Z,12.60
2019-05-25T08:20:13.968Z,12.77
2019-05-25T08:22:42.458Z,12.17
2019-05-25T08:25:12.579Z,10.83
2019-05-25T08:27:41.044Z,9.50
2019-05-25T08:30:09.985Z,15.67
2019-05-25T08:32:38.371Z,16.07
2019-05-25T08:35:09.105Z,9.83
2019-05-25T08:37:37.497Z,11.67
2019-05-25T08:40:08.001Z,8.93
2019-05-25T08:42:36.416Z,9.13
2019-05-25T08:45:08.865Z,12.27
2019-05-25T08:47:37.263Z,11.50
2019-05-25T08:50:08.714Z,10.43
2019-05-25T08:52:38.123Z,10.57
2019-05-25T08:55:08.333Z,12.83
2019-05-25T08:57:36.737Z,10.30
2019-05-25T09:00:09.768Z,15.13
2019-05-25T09:02:38.184Z,8.67
2019-05-25T09:05:09.043Z,12.47
2019-05-25T09:07:37.561Z,10.70
2019-05-25T09:10:07.645Z,11.70
2019-05-25T09:12:36.038Z,9.80
2019-05-25T09:15:06.789Z,10.85
2019-05-25T09:17:35.173Z,11.55
2019-05-25T09:20:09.056Z,8.45
2019-05-25T09:22:37.513Z,8.95
2019-05-25T09:25:08.567Z,10.23
2019-05-25T09:27:37.025Z,12.60
2019-05-25T09:30:07.950Z,9.90
2019-05-25T09:32:36.401Z,11.85
2019-05-25T09:35:07.439Z,8.50
2019-05-25T09:37:35.845Z,8.05
2019-05-25T09:40:06.732Z,7.00
2019-05-25T09:42:35.274Z,17.87
2019-05-25T09:45:06.212Z,11.33
2019-05-25T09:47:34.606Z,12.55
2019-05-25T09:50:04.271Z,33.18
2019-05-25T09:52:32.673Z,9.30
2019-05-25T09:55:01.070Z,10.60
2019-05-25T09:57:29.527Z,8.43
2019-05-25T09:59:57.927Z,11.55
2019-05-25T10:02:26.323Z,8.45
2019-05-25T10:04:54.719Z,6.83
2019-05-25T10:07:23.142Z,11.40
2019-05-25T10:09:51.528Z,9.23
2019-05-25T10:12:19.992Z,8.60
2019-05-25T10:14:48.385Z,7.83
2019-05-25T10:17:16.856Z,9.40
2019-05-25T10:19:45.262Z,13.22
2019-05-25T10:22:13.689Z,12.28
2019-05-25T10:24:42.108Z,13.13
2019-05-25T10:27:10.569Z,12.55
2019-05-25T10:29:38.965Z,12.88
2019-05-25T10:32:07.360Z,14.23
2019-05-25T10:34:35.745Z,11.85
2019-05-25T10:37:04.221Z,12.70
2019-05-25T10:39:32.604Z,10.48
2019-05-25T10:42:01.005Z,13.65
2019-05-25T10:44:29.414Z,13.83
2019-05-25T10:46:57.827Z,13.03
2019-05-25T10:49:26.212Z,13.72
2019-05-25T10:51:54.598Z,10.05
2019-05-25T10:54:22.997Z,10.35
2019-05-25T10:56:51.455Z,11.08
2019-05-25T10:59:19.928Z,12.95
2019-05-25T11:01:48.396Z,12.50
2019-05-25T11:04:16.793Z,8.60
2019-05-25T11:06:45.205Z,11.78
2019-05-25T11:09:13.601Z,11.00
2019-05-25T11:11:41.992Z,12.00
2019-05-25T11:14:10.397Z,16.00
2019-05-25T11:16:38.816Z,11.78
2019-05-25T11:19:07.200Z,9.65
2019-05-25T11:21:35.592Z,8.15
2019-05-25T11:24:04.060Z,11.10
2019-05-25T11:26:32.472Z,10.15
2019-05-25T11:29:00.866Z,9.80
2019-05-25T11:31:29.365Z,6.35
2019-05-25T11:33:58.454Z,8.75
2019-05-25T11:36:26.854Z,7.53
2019-05-25T11:38:55.275Z,6.05
2019-05-25T11:41:23.721Z,6.45
2019-05-25T11:43:52.133Z,7.33
2019-05-25T11:46:20.525Z,7.70
2019-05-25T11:48:48.917Z,8.98
2019-05-25T11:51:17.317Z,8.38
2019-05-25T11:53:45.709Z,10.72
2019-05-25T11:56:14.094Z,8.48
2019-05-25T11:58:47.457Z,10.15
2019-05-25T12:01:12.691Z,7.78
2019-05-25T12:03:41.089Z,8.73
2019-05-25T12:06:09.486Z,10.65
2019-05-25T12:08:37.880Z,9.65
2019-05-25T12:11:06.433Z,11.28
2019-05-25T12:13:34.830Z,12.75
2019-05-25T12:16:03.373Z,11.78
2019-05-25T12:18:31.774Z,13.38
2019-05-25T12:21:00.181Z,10.48
2019-05-25T12:23:28.649Z,10.00
2019-05-25T12:25:57.044Z,10.40
2019-05-25T12:28:25.440Z,9.63
2019-05-25T12:30:53.841Z,9.68
2019-05-25T12:33:22.229Z,9.33
2019-05-25T12:35:50.669Z,9.28
2019-05-25T12:38:19.110Z,8.55
2019-05-25T12:40:53.607Z,9.45
2019-05-25T12:43:17.644Z,10.43
2019-05-25T12:45:46.127Z,10.60
2019-05-25T12:48:14.522Z,8.33
2019-05-25T12:50:42.978Z,8.38
2019-05-25T12:53:11.392Z,9.55
2019-05-25T12:55:39.782Z,8.05
2019-05-25T12:58:08.174Z,9.03
2019-05-25T13:00:36.571Z,12.05
2019-05-25T13:03:05.129Z,7.40
2019-05-25T13:05:34.817Z,9.88
2019-05-25T13:08:03.930Z,10.82
2019-05-25T13:10:32.314Z,10.05
2019-05-25T13:13:02.256Z,7.53
2019-05-25T13:15:30.824Z,12.05
2019-05-25T13:17:59.243Z,8.70
2019-05-25T13:20:27.627Z,9.78
2019-05-25T13:22:56.032Z,14.45
2019-05-25T13:25:24.434Z,8.38
2019-05-25T13:27:52.823Z,11.97
2019-05-25T13:30:21.277Z,10.35
2019-05-25T13:32:49.677Z,9.88
2019-05-25T13:35:18.057Z,9.53
2019-05-25T13:37:46.453Z,9.75
2019-05-25T13:40:15.677Z,8.65
2019-05-25T13:42:44.075Z,7.78
2019-05-25T13:45:14.106Z,6.62
2019-05-25T13:47:42.503Z,8.43
2019-05-25T13:50:12.926Z,10.05
2019-05-25T13:52:41.335Z,10.53
2019-05-25T13:55:10.961Z,10.50
2019-05-25T13:57:39.389Z,10.03
2019-05-25T14:00:09.786Z,10.32
2019-05-25T14:02:38.189Z,9.50
2019-05-25T14:05:07.719Z,8.70
2019-05-25T14:07:36.096Z,7.85
2019-05-25T14:10:07.581Z,8.88
2019-05-25T14:12:36.061Z,9.28
2019-05-25T14:15:09.203Z,6.92
2019-05-25T14:17:37.749Z,9.85
2019-05-25T14:20:07.782Z,9.98
2019-05-25T14:22:36.164Z,8.23
2019-05-25T14:25:08.406Z,7.12
2019-05-25T14:27:36.860Z,7.45
2019-05-25T14:30:07.586Z,9.60
2019-05-25T14:32:35.994Z,6.12
2019-05-25T14:35:05.304Z,5.97
2019-05-25T14:37:33.716Z,7.45
2019-05-25T14:40:02.124Z,7.40
2019-05-25T14:42:30.568Z,5.92
2019-05-25T14:44:58.977Z,7.97
2019-05-25T14:47:27.372Z,10.50
2019-05-25T14:49:55.761Z,7.47
2019-05-25T14:52:24.161Z,6.42
2019-05-25T14:54:52.554Z,6.53
2019-05-25T14:57:20.953Z,5.78
2019-05-25T14:59:49.352Z,6.47
2019-05-25T15:02:17.737Z,9.48
2019-05-25T15:04:46.154Z,7.85
2019-05-25T15:07:14.588Z,10.50
2019-05-25T15:09:43.047Z,8.30
2019-05-25T15:12:11.449Z,5.25
2019-05-25T15:14:39.849Z,8.30
2019-05-25T15:17:08.251Z,6.45
2019-05-25T15:19:36.641Z,7.35
2019-05-25T15:22:05.146Z,7.83
2019-05-25T15:24:33.537Z,6.67
2019-05-25T15:27:01.930Z,6.37
2019-05-25T15:29:30.357Z,9.48
2019-05-25T15:31:58.798Z,8.63
2019-05-25T15:34:27.934Z,9.28
2019-05-25T15:36:56.341Z,7.22
2019-05-25T15:39:24.837Z,5.55
2019-05-25T15:41:53.289Z,9.08
2019-05-25T15:44:21.681Z,6.40
2019-05-25T15:46:50.290Z,6.05
2019-05-25T15:49:18.776Z,6.60
2019-05-25T15:51:47.174Z,5.65
2019-05-25T15:54:15.557Z,6.45
2019-05-25T15:56:43.970Z,6.78
2019-05-25T15:59:12.366Z,8.48
2019-05-25T16:01:40.754Z,7.93
2019-05-25T16:04:09.226Z,7.17
2019-05-25T16:06:37.690Z,6.57
2019-05-25T16:09:08.138Z,10.17
2019-05-25T16:11:36.561Z,8.40
2019-05-25T16:14:07.815Z,8.37
2019-05-25T16:16:35.905Z,9.77
2019-05-25T16:19:04.993Z,9.17
2019-05-25T16:21:33.386Z,8.00
2019-05-25T16:24:01.786Z,11.00
2019-05-25T16:26:44.902Z,10.77
2019-05-25T16:29:00.568Z,9.17
2019-05-25T16:31:28.965Z,9.70
2019-05-25T16:33:57.355Z,8.43
2019-05-25T16:36:25.768Z,10.13
2019-05-25T16:38:54.154Z,10.00
2019-05-25T16:41:22.550Z,8.67
2019-05-25T16:43:50.957Z,9.63
2019-05-25T16:46:19.350Z,10.83
2019-05-25T16:48:47.749Z,12.20
2019-05-25T16:51:16.220Z,11.23
2019-05-25T16:53:44.738Z,10.53
2019-05-25T16:56:13.186Z,9.27
2019-05-25T16:58:41.596Z,11.13
2019-05-25T17:01:09.989Z,10.97
2019-05-25T17:03:38.397Z,10.47
2019-05-25T17:06:06.800Z,11.07
2019-05-25T17:08:35.192Z,12.90
2019-05-25T17:11:03.594Z,15.47
2019-05-25T17:13:31.985Z,11.50
2019-05-25T17:16:00.381Z,8.27
2019-05-25T17:18:28.785Z,8.70
2019-05-25T17:20:57.182Z,11.20
2019-05-25T17:23:25.590Z,9.83
2019-05-25T17:25:54.065Z,13.43
2019-05-25T17:28:22.453Z,10.53
2019-05-25T17:30:50.858Z,10.03
2019-05-25T17:33:19.253Z,11.23
2019-05-25T17:35:47.655Z,10.77
2019-05-25T17:38:16.045Z,10.03
2019-05-25T17:40:44.521Z,11.23
2019-05-25T17:43:12.932Z,9.00
2019-05-25T17:45:41.334Z,11.23
2019-05-25T17:48:09.801Z,9.03
2019-05-25T17:50:38.197Z,13.37
2019-05-25T17:53:06.589Z,11.87
2019-05-25T17:55:35.023Z,9.57
2019-05-25T17:58:05.059Z,9.87
2019-05-25T18:00:41.860Z,11.67
2019-05-25T18:03:10.292Z,10.20
2019-05-25T18:05:38.692Z,10.80
2019-05-25T18:08:07.220Z,8.33
2019-05-25T18:10:51.093Z,14.73
2019-05-25T18:13:06.671Z,9.93
2019-05-25T18:15:35.090Z,8.73
2019-05-25T18:18:05.088Z,9.33
2019-05-25T18:20:33.498Z,10.50
2019-05-25T18:23:01.947Z,9.93
2019-05-25T18:25:30.337Z,10.57
2019-05-25T18:27:58.750Z,11.63
2019-05-25T18:30:28.680Z,13.60
2019-05-25T18:32:57.154Z,11.00
2019-05-25T18:35:25.555Z,10.80
2019-05-25T18:37:53.957Z,13.03
2019-05-25T18:40:24.066Z,12.17
2019-05-25T18:42:52.477Z,11.07
2019-05-25T18:45:20.944Z,9.50
2019-05-25T18:47:49.353Z,8.53
2019-05-25T18:50:19.357Z,8.00
2019-05-25T18:52:47.821Z,11.00
2019-05-25T18:55:18.741Z,10.77
2019-05-25T18:57:47.503Z,9.53
2019-05-25T19:00:17.499Z,6.07
2019-05-25T19:02:45.902Z,10.83
2019-05-25T19:05:17.728Z,9.03
2019-05-25T19:07:46.129Z,9.73
2019-05-25T19:10:14.966Z,9.27
2019-05-25T19:12:43.362Z,9.50
2019-05-25T19:15:12.291Z,9.20
2019-05-25T19:17:40.710Z,11.03
2019-05-25T19:20:10.091Z,8.33
2019-05-25T19:22:38.536Z,10.97
2019-05-25T19:25:12.316Z,9.17
2019-05-25T19:27:40.719Z,8.93
2019-05-25T19:30:10.457Z,9.67
2019-05-25T19:32:39.047Z,7.37
2019-05-25T19:35:09.186Z,6.50
2019-05-25T19:37:37.595Z,10.53
2019-05-25T19:40:09.471Z,10.10
2019-05-25T19:42:38.150Z,9.93
2019-05-25T19:45:08.750Z,7.57
2019-05-25T19:47:37.139Z,9.07
2019-05-25T19:50:06.686Z,7.83
2019-05-25T19:52:35.090Z,8.70
2019-05-25T19:55:05.929Z,11.63
2019-05-25T19:57:34.338Z,10.87
2019-05-25T20:00:03.990Z,8.90
2019-05-25T20:02:32.392Z,8.17
2019-05-25T20:05:14.994Z,8.60
2019-05-25T20:07:30.918Z,7.23
2019-05-25T20:09:59.344Z,11.80
2019-05-25T20:12:27.761Z,12.47
2019-05-25T20:14:56.195Z,11.27
2019-05-25T20:17:24.629Z,8.53
2019-05-25T20:19:53.034Z,9.97
2019-05-25T20:22:21.441Z,8.90
2019-05-25T20:24:49.908Z,12.77
2019-05-25T20:27:18.316Z,14.27
2019-05-25T20:29:46.716Z,11.90
2019-05-25T20:32:15.129Z,8.83
2019-05-25T20:34:45.731Z,12.23
2019-05-25T20:37:13.693Z,9.67
2019-05-25T20:39:42.097Z,13.23
2019-05-25T20:42:10.514Z,10.37
2019-05-25T20:44:38.907Z,13.30
2019-05-25T20:47:07.309Z,13.47
2019-05-25T20:49:35.710Z,17.53
2019-05-25T20:52:04.176Z,13.40
2019-05-25T20:54:32.580Z,15.50
2019-05-25T20:57:00.980Z,13.57
2019-05-25T20:59:29.366Z,12.60
2019-05-25T21:01:58.008Z,8.90
2019-05-25T21:04:26.406Z,9.03
2019-05-25T21:06:54.804Z,9.03
2019-05-25T21:09:23.204Z,13.13
2019-05-25T21:11:55.591Z,8.20
2019-05-25T21:14:21.717Z,13.07
2019-05-25T21:16:50.114Z,8.47
2019-05-25T21:19:18.513Z,9.80
2019-05-25T21:21:46.901Z,7.93
2019-05-25T21:24:15.294Z,9.87
2019-05-25T21:26:43.701Z,9.63
2019-05-25T21:29:12.094Z,7.83
2019-05-25T21:31:40.481Z,9.83
2019-05-25T21:34:08.887Z,10.27
2019-05-25T21:36:37.281Z,8.40
2019-05-25T21:39:07.541Z,8.47
2019-05-25T21:41:35.950Z,11.77
2019-05-25T21:44:04.341Z,9.70
2019-05-25T21:46:32.736Z,10.83
2019-05-25T21:49:01.128Z,9.37
2019-05-25T21:51:29.581Z,14.13
2019-05-25T21:53:58.036Z,10.17
2019-05-25T21:56:26.520Z,9.20
2019-05-25T21:58:54.896Z,10.30
2019-05-25T22:01:23.362Z,12.87
2019-05-25T22:03:51.820Z,13.53
2019-05-25T22:06:24.435Z,11.20
2019-05-25T22:08:50.333Z,11.33
2019-05-25T22:11:18.821Z,10.17
2019-05-25T22:13:47.217Z,10.43
2019-05-25T22:16:15.633Z,13.07
2019-05-25T22:18:44.029Z,15.03
2019-05-25T22:21:12.421Z,9.83
2019-05-25T22:23:40.894Z,11.23
2019-05-25T22:26:09.297Z,14.38
2019-05-25T22:28:44.854Z,12.60
2019-05-25T22:31:07.804Z,14.87
2019-05-25T22:33:36.217Z,12.90
2019-05-25T22:36:04.610Z,12.17
2019-05-25T22:38:33.001Z,15.10
2019-05-25T22:41:01.416Z,16.57
2019-05-25T22:43:29.813Z,14.00
2019-05-25T22:45:58.216Z,15.57
2019-05-25T22:48:26.622Z,12.87
2019-05-25T22:50:55.034Z,13.10
2019-05-25T22:53:23.427Z,16.90
2019-05-25T22:55:51.822Z,16.67
2019-05-25T22:58:20.221Z,17.07
2019-05-25T23:00:48.625Z,14.77
2019-05-25T23:03:17.018Z,18.13
2019-05-25T23:05:45.429Z,16.70
2019-05-25T23:08:13.825Z,17.20
2019-05-25T23:10:42.221Z,20.27
2019-05-25T23:13:10.621Z,20.67
2019-05-25T23:15:39.021Z,17.97
2019-05-25T23:18:07.427Z,16.93
2019-05-25T23:20:36.857Z,15.87
2019-05-25T23:23:05.821Z,18.30
2019-05-25T23:25:34.227Z,16.90
2019-05-25T23:28:02.617Z,20.13
2019-05-25T23:30:31.020Z,17.93
2019-05-25T23:32:59.417Z,21.70
2019-05-25T23:35:27.812Z,16.80
2019-05-25T23:37:56.209Z,19.87
2019-05-25T23:40:24.602Z,19.63
2019-05-25T23:42:53.014Z,22.77
2019-05-25T23:45:21.419Z,21.63
2019-05-25T23:47:49.811Z,22.37
2019-05-25T23:50:18.345Z,25.27
2019-05-25T23:52:46.761Z,22.07
2019-05-25T23:55:15.997Z,22.60
2019-05-25T23:57:44.389Z,22.93
